createdAt,value
2017-06-14T00:00:21.608Z,4.27
2017-06-14T00:02:50.069Z,5.03
2017-06-14T00:05:18.635Z,4.00
2017-06-14T00:07:47.455Z,4.97
2017-06-14T00:10:16.139Z,5.40
2017-06-14T00:12:44.836Z,5.30
2017-06-14T00:15:13.381Z,5.30
2017-06-14T00:17:41.857Z,3.63
2017-06-14T00:20:10.745Z,6.70
2017-06-14T00:22:39.219Z,4.20
2017-06-14T00:25:07.840Z,3.90
2017-06-14T00:27:36.401Z,4.00
2017-06-14T00:30:05.053Z,5.23
2017-06-14T00:32:34.332Z,4.50
2017-06-14T00:35:03.068Z,4.60
2017-06-14T00:37:31.561Z,5.23
2017-06-14T00:40:00.034Z,4.20
2017-06-14T00:42:28.500Z,5.73
2017-06-14T00:44:58.179Z,7.40
2017-06-14T00:47:26.732Z,6.20
2017-06-14T00:49:55.250Z,5.90
2017-06-14T00:52:23.746Z,5.33
2017-06-14T00:54:52.200Z,4.40
2017-06-14T00:57:20.809Z,8.07
2017-06-14T00:59:49.309Z,5.00
2017-06-14T01:02:18.640Z,10.13
2017-06-14T01:04:47.085Z,4.83
2017-06-14T01:07:16.353Z,5.37
2017-06-14T01:09:45.277Z,5.33
2017-06-14T01:12:13.902Z,4.83
2017-06-14T01:14:42.397Z,5.27
2017-06-14T01:17:11.130Z,7.50
2017-06-14T01:19:39.649Z,5.23
2017-06-14T01:22:08.116Z,5.80
2017-06-14T01:24:36.609Z,4.90
2017-06-14T01:27:05.061Z,5.13
2017-06-14T01:29:38.017Z,4.53
2017-06-14T01:32:06.681Z,4.10
2017-06-14T01:34:35.286Z,6.90
2017-06-14T01:37:03.798Z,4.83
2017-06-14T01:39:32.263Z,4.27
2017-06-14T01:42:00.815Z,5.27
2017-06-14T01:44:29.387Z,5.40
2017-06-14T01:46:57.969Z,5.70
2017-06-14T01:49:26.723Z,5.60
2017-06-14T01:51:56.013Z,7.00
2017-06-14T01:54:25.024Z,5.07
2017-06-14T01:56:53.776Z,4.80
2017-06-14T01:59:22.437Z,5.00
2017-06-14T02:01:50.993Z,5.47
2017-06-14T02:04:19.735Z,7.73
2017-06-14T02:06:48.233Z,6.43
2017-06-14T02:09:16.972Z,4.60
2017-06-14T02:11:45.510Z,7.20
2017-06-14T02:14:14.706Z,5.50
2017-06-14T02:16:43.451Z,7.57
2017-06-14T02:19:12.063Z,7.60
2017-06-14T02:21:40.545Z,4.90
2017-06-14T02:24:09.247Z,5.73
2017-06-14T02:26:37.813Z,7.70
2017-06-14T02:29:06.289Z,5.30
2017-06-14T02:31:35.030Z,5.43
2017-06-14T02:34:04.817Z,5.77
2017-06-14T02:36:33.344Z,7.07
2017-06-14T02:39:01.821Z,4.47
2017-06-14T02:41:30.676Z,7.30
2017-06-14T02:43:59.179Z,6.73
2017-06-14T02:46:28.482Z,7.77
2017-06-14T02:48:57.982Z,5.13
2017-06-14T02:51:27.712Z,5.27
2017-06-14T02:53:56.330Z,7.53
2017-06-14T02:56:24.770Z,6.23
2017-06-14T02:58:53.319Z,5.20
2017-06-14T03:01:21.781Z,6.57
2017-06-14T03:03:50.282Z,5.63
2017-06-14T03:06:32.716Z,5.47
2017-06-14T03:09:01.188Z,4.50
2017-06-14T03:11:29.828Z,5.00
2017-06-14T03:14:13.628Z,5.50
2017-06-14T03:16:42.365Z,5.60
2017-06-14T03:19:11.042Z,5.60
2017-06-14T03:21:40.041Z,5.13
2017-06-14T03:24:08.849Z,5.03
2017-06-14T03:26:37.409Z,4.80
2017-06-14T03:29:05.870Z,5.30
2017-06-14T03:31:34.881Z,7.40
2017-06-14T03:34:03.463Z,6.97
2017-06-14T03:36:32.053Z,5.20
2017-06-14T03:39:00.598Z,5.77
2017-06-14T03:41:29.098Z,5.40
2017-06-14T03:43:58.308Z,9.10
2017-06-14T03:46:26.913Z,4.60
2017-06-14T03:48:56.202Z,6.20
2017-06-14T03:51:24.655Z,4.63
2017-06-14T03:53:53.885Z,4.83
2017-06-14T03:56:22.373Z,6.00
2017-06-14T03:58:51.130Z,9.67
2017-06-14T04:01:20.618Z,5.20
2017-06-14T04:03:49.108Z,5.77
2017-06-14T04:06:17.609Z,6.50
2017-06-14T04:08:46.104Z,5.90
2017-06-14T04:11:14.763Z,5.70
2017-06-14T04:13:44.919Z,5.10
2017-06-14T04:16:13.435Z,8.97
2017-06-14T04:18:41.915Z,6.30
2017-06-14T04:21:10.382Z,5.47
2017-06-14T04:23:39.084Z,6.43
2017-06-14T04:26:07.644Z,6.23
2017-06-14T04:28:36.801Z,7.47
2017-06-14T04:31:06.029Z,6.20
2017-06-14T04:33:34.509Z,5.63
2017-06-14T04:36:02.952Z,4.73
2017-06-14T04:38:31.482Z,5.53
2017-06-14T04:41:00.180Z,7.43
2017-06-14T04:43:28.648Z,5.57
2017-06-14T04:45:57.148Z,6.10
2017-06-14T04:48:25.608Z,8.40
2017-06-14T04:50:54.097Z,5.40
2017-06-14T04:53:22.605Z,5.50
2017-06-14T04:55:51.085Z,6.40
2017-06-14T04:58:19.849Z,4.27
2017-06-14T05:00:48.461Z,4.83
2017-06-14T05:03:16.976Z,6.97
2017-06-14T05:05:45.488Z,4.50
2017-06-14T05:08:14.833Z,3.93
2017-06-14T05:10:43.313Z,4.60
2017-06-14T05:13:11.900Z,11.30
2017-06-14T05:15:40.959Z,4.57
2017-06-14T05:18:09.420Z,4.00
2017-06-14T05:20:38.089Z,7.30
2017-06-14T05:23:06.852Z,3.20
2017-06-14T05:25:35.557Z,3.57
2017-06-14T05:28:04.166Z,3.57
2017-06-14T05:30:32.676Z,3.73
2017-06-14T05:33:01.293Z,3.97
2017-06-14T05:35:29.745Z,3.17
2017-06-14T05:37:58.233Z,3.50
2017-06-14T05:40:27.249Z,3.83
2017-06-14T05:42:55.745Z,3.47
2017-06-14T05:45:24.217Z,5.00
2017-06-14T05:47:52.773Z,5.10
2017-06-14T05:50:21.381Z,4.23
2017-06-14T05:52:49.916Z,6.40
2017-06-14T05:55:19.248Z,5.07
2017-06-14T05:57:47.978Z,4.60
2017-06-14T06:00:16.457Z,3.43
2017-06-14T06:02:46.349Z,5.23
2017-06-14T06:05:14.827Z,2.67
2017-06-14T06:07:43.507Z,8.80
2017-06-14T06:10:12.188Z,2.80
2017-06-14T06:12:40.685Z,2.77
2017-06-14T06:15:09.124Z,3.30
2017-06-14T06:17:38.656Z,3.67
2017-06-14T06:20:08.470Z,2.20
2017-06-14T06:22:37.065Z,4.60
2017-06-14T06:25:05.617Z,3.97
2017-06-14T06:27:34.446Z,4.47
2017-06-14T06:30:03.034Z,2.17
2017-06-14T06:32:31.572Z,3.67
2017-06-14T06:35:00.821Z,3.93
2017-06-14T06:37:29.294Z,7.80
2017-06-14T06:39:57.810Z,4.97
2017-06-14T06:42:26.520Z,3.43
2017-06-14T06:44:55.426Z,2.80
2017-06-14T06:47:24.684Z,3.90
2017-06-14T06:49:53.245Z,4.27
2017-06-14T06:52:22.191Z,3.53
2017-06-14T06:54:50.701Z,3.30
2017-06-14T06:57:19.209Z,3.40
2017-06-14T06:59:47.829Z,4.70
2017-06-14T07:02:16.802Z,2.30
2017-06-14T07:04:45.319Z,2.87
2017-06-14T07:07:14.553Z,4.00
2017-06-14T07:09:43.306Z,2.80
2017-06-14T07:12:13.001Z,5.70
2017-06-14T07:14:42.090Z,2.00
2017-06-14T07:17:10.697Z,3.53
2017-06-14T07:19:39.179Z,5.00
2017-06-14T07:22:07.821Z,1.27
2017-06-14T07:27:04.532Z,3.37
2017-06-14T07:29:34.003Z,4.10
2017-06-14T07:32:11.817Z,2.00
2017-06-14T07:34:40.877Z,1.85
2017-06-14T07:37:09.442Z,3.17
2017-06-14T07:39:38.159Z,1.87
2017-06-14T07:42:06.923Z,2.30
2017-06-14T07:44:35.742Z,3.67
2017-06-14T07:47:04.201Z,3.70
2017-06-14T07:49:33.118Z,1.80
2017-06-14T07:52:01.781Z,3.90
2017-06-14T07:54:30.635Z,2.73
2017-06-14T08:01:56.154Z,2.67
2017-06-14T08:14:17.025Z,2.45
2017-06-14T08:21:41.729Z,2.47
2017-06-14T08:29:06.786Z,2.20
2017-06-14T08:31:35.319Z,1.80
2017-06-14T08:34:03.821Z,3.33
2017-06-14T08:36:32.404Z,1.80
2017-06-14T08:39:01.081Z,2.65
2017-06-14T08:41:29.692Z,3.23
2017-06-14T08:43:58.172Z,2.70
2017-06-14T08:46:26.666Z,3.43
2017-06-14T08:48:55.190Z,2.50
2017-06-14T08:58:48.718Z,3.75
2017-06-14T09:01:17.938Z,1.63
2017-06-14T09:03:46.532Z,3.47
2017-06-14T09:06:15.041Z,6.30
2017-06-14T09:08:43.594Z,1.87
2017-06-14T09:13:41.389Z,3.57
2017-06-14T09:16:09.886Z,1.57
2017-06-14T09:31:01.174Z,2.00
2017-06-14T09:33:30.320Z,2.00
2017-06-14T09:38:26.662Z,2.87
2017-06-14T09:40:55.309Z,1.73
2017-06-14T09:43:23.765Z,1.33
2017-06-14T10:20:27.806Z,1.30
2017-06-14T12:11:42.690Z,2.15
2017-06-14T12:14:13.459Z,1.05
2017-06-14T12:16:43.457Z,2.00
2017-06-14T12:24:13.082Z,1.47
2017-06-14T12:26:42.817Z,1.10
2017-06-14T12:47:00.708Z,2.20
2017-06-14T12:49:29.344Z,1.07
2017-06-14T12:52:00.193Z,1.83
2017-06-14T12:54:32.774Z,1.63
2017-06-14T12:57:01.850Z,1.47
2017-06-14T13:09:26.382Z,1.45
2017-06-14T13:11:55.479Z,0.73
2017-06-14T13:14:31.746Z,2.90
2017-06-14T13:17:00.392Z,1.63
2017-06-14T13:19:30.097Z,1.47
2017-06-14T13:22:07.301Z,1.80
2017-06-14T13:24:35.781Z,1.40
2017-06-14T13:27:04.308Z,2.07
2017-06-14T13:29:33.211Z,3.30
2017-06-14T13:32:02.279Z,2.00
2017-06-14T13:34:30.989Z,2.60
2017-06-14T13:36:59.470Z,1.70
2017-06-14T13:39:28.149Z,1.30
2017-06-14T13:41:56.810Z,1.80
2017-06-14T13:44:25.531Z,1.40
2017-06-14T13:46:54.203Z,1.20
2017-06-14T13:49:23.138Z,1.77
2017-06-14T13:51:51.833Z,1.30
2017-06-14T13:54:21.709Z,1.67
2017-06-14T13:56:50.726Z,2.17
2017-06-14T13:59:20.110Z,4.37
2017-06-14T14:01:50.840Z,2.70
2017-06-14T14:04:20.777Z,1.03
2017-06-14T14:06:49.316Z,3.00
2017-06-14T14:09:23.601Z,3.23
2017-06-14T14:11:52.129Z,1.23
2017-06-14T14:14:20.704Z,1.50
2017-06-14T14:16:49.301Z,2.00
2017-06-14T14:19:18.407Z,1.37
2017-06-14T14:21:47.133Z,2.23
2017-06-14T14:24:16.454Z,2.40
2017-06-14T14:26:44.987Z,3.03
2017-06-14T14:29:13.533Z,1.67
2017-06-14T14:31:42.058Z,1.80
2017-06-14T14:34:10.775Z,7.57
2017-06-14T14:36:39.994Z,2.30
2017-06-14T14:39:08.533Z,2.50
2017-06-14T14:41:37.487Z,1.30
2017-06-14T14:44:07.364Z,1.33
2017-06-14T14:46:36.814Z,1.27
2017-06-14T14:49:05.351Z,1.63
2017-06-14T14:51:33.872Z,1.83
2017-06-14T14:54:04.306Z,1.20
2017-06-14T14:56:32.998Z,1.50
2017-06-14T14:59:01.701Z,1.53
2017-06-14T15:01:30.259Z,2.50
2017-06-14T15:03:58.738Z,1.30
2017-06-14T15:06:27.532Z,1.83
2017-06-14T15:08:56.849Z,1.80
2017-06-14T15:11:25.350Z,1.10
2017-06-14T15:13:54.031Z,1.80
2017-06-14T15:16:23.097Z,1.20
2017-06-14T15:18:51.572Z,3.20
2017-06-14T15:21:20.097Z,1.40
2017-06-14T15:23:48.791Z,1.30
2017-06-14T15:26:17.310Z,1.30
2017-06-14T15:28:46.765Z,2.00
2017-06-14T15:31:15.444Z,2.20
2017-06-14T15:33:45.677Z,1.37
2017-06-14T15:36:14.231Z,1.47
2017-06-14T15:38:42.774Z,2.10
2017-06-14T15:41:11.301Z,1.40
2017-06-14T15:43:40.170Z,1.27
2017-06-14T15:46:08.733Z,1.40
2017-06-14T15:48:37.209Z,1.20
2017-06-14T15:51:06.406Z,2.10
2017-06-14T15:53:35.008Z,2.13
2017-06-14T15:56:03.559Z,2.17
2017-06-14T15:58:32.656Z,2.23
2017-06-14T16:01:01.983Z,1.40
2017-06-14T16:03:33.285Z,2.20
2017-06-14T16:06:02.793Z,1.60
2017-06-14T16:08:32.099Z,3.27
2017-06-14T16:11:00.579Z,1.63
2017-06-14T16:13:34.522Z,1.80
2017-06-14T16:25:58.771Z,1.63
2017-06-14T16:28:27.352Z,1.43
2017-06-14T16:30:56.117Z,1.30
2017-06-14T16:33:24.789Z,2.67
2017-06-14T16:35:53.492Z,2.03
2017-06-14T16:38:22.557Z,2.00
2017-06-14T16:40:51.150Z,1.83
2017-06-14T16:43:19.795Z,1.93
2017-06-14T16:45:49.263Z,1.90
2017-06-14T16:48:17.813Z,1.93
2017-06-14T16:50:46.777Z,1.90
2017-06-14T16:53:15.814Z,1.70
2017-06-14T16:55:44.359Z,1.80
2017-06-14T16:58:12.846Z,1.40
2017-06-14T17:00:41.334Z,2.10
2017-06-14T17:03:09.926Z,1.67
2017-06-14T17:05:38.442Z,2.30
2017-06-14T17:08:07.056Z,4.30
2017-06-14T17:10:35.761Z,1.67
2017-06-14T17:13:05.205Z,1.97
2017-06-14T17:15:33.789Z,2.23
2017-06-14T17:18:04.047Z,3.60
2017-06-14T17:20:32.891Z,2.87
2017-06-14T17:23:01.696Z,1.23
2017-06-14T17:25:30.173Z,1.47
2017-06-14T17:27:58.669Z,1.30
2017-06-14T17:30:27.305Z,1.50
2017-06-14T17:32:56.000Z,1.90
2017-06-14T17:35:25.499Z,1.47
2017-06-14T17:37:54.599Z,1.87
2017-06-14T17:40:24.044Z,1.17
2017-06-14T17:42:52.659Z,1.23
2017-06-14T17:45:21.228Z,1.03
2017-06-14T17:47:49.923Z,2.37
2017-06-14T17:50:18.693Z,1.33
2017-06-14T17:52:47.153Z,2.00
2017-06-14T17:55:16.037Z,1.23
2017-06-14T17:57:45.749Z,1.23
2017-06-14T18:00:14.386Z,1.77
2017-06-14T18:02:42.853Z,1.27
2017-06-14T18:10:07.881Z,1.27
2017-06-14T18:12:37.919Z,1.80
2017-06-14T18:15:06.705Z,1.40
2017-06-14T18:17:35.299Z,0.90
2017-06-14T18:20:04.054Z,2.70
2017-06-14T18:22:32.648Z,2.50
2017-06-14T18:25:01.641Z,1.40
2017-06-14T18:27:30.432Z,1.30
2017-06-14T18:30:00.206Z,2.30
2017-06-14T18:32:30.703Z,1.73
2017-06-14T18:34:59.823Z,1.80
2017-06-14T18:37:30.313Z,2.33
2017-06-14T18:39:59.217Z,1.73
2017-06-14T18:42:27.752Z,1.47
2017-06-14T18:44:56.617Z,1.70
2017-06-14T18:47:25.560Z,1.33
2017-06-14T18:49:54.149Z,2.33
2017-06-14T18:52:22.713Z,1.80
2017-06-14T18:54:51.367Z,1.50
2017-06-14T18:57:21.078Z,1.90
2017-06-14T18:59:50.602Z,2.80
2017-06-14T19:02:19.449Z,1.90
2017-06-14T19:04:48.313Z,1.97
2017-06-14T19:07:18.520Z,2.10
2017-06-14T19:09:47.093Z,2.70
2017-06-14T19:12:16.255Z,2.40
2017-06-14T19:14:44.903Z,1.97
2017-06-14T19:17:13.621Z,1.80
2017-06-14T19:19:42.130Z,1.83
2017-06-14T19:22:11.573Z,1.53
2017-06-14T19:24:40.152Z,2.17
2017-06-14T19:27:08.710Z,2.50
2017-06-14T19:29:41.973Z,2.10
2017-06-14T19:32:14.975Z,1.93
2017-06-14T19:34:48.333Z,1.90
2017-06-14T19:37:17.217Z,2.17
2017-06-14T19:39:45.698Z,2.63
2017-06-14T19:42:15.325Z,2.23
2017-06-14T19:44:43.815Z,2.23
2017-06-14T19:47:12.434Z,2.63
2017-06-14T19:49:42.157Z,2.60
2017-06-14T19:52:10.670Z,3.37
2017-06-14T19:54:39.486Z,2.60
2017-06-14T19:57:08.182Z,2.63
2017-06-14T19:59:37.032Z,2.70
2017-06-14T20:02:05.641Z,2.97
2017-06-14T20:04:34.435Z,3.93
2017-06-14T20:07:03.129Z,2.60
2017-06-14T20:09:32.081Z,3.40
2017-06-14T20:12:01.962Z,2.77
2017-06-14T20:14:33.466Z,3.17
2017-06-14T20:17:02.029Z,2.37
2017-06-14T20:19:30.717Z,2.93
2017-06-14T20:21:59.551Z,2.60
2017-06-14T20:24:28.262Z,3.30
2017-06-14T20:26:56.897Z,3.50
2017-06-14T20:29:25.875Z,3.40
2017-06-14T20:31:54.385Z,4.30
2017-06-14T20:34:22.964Z,3.13
2017-06-14T20:36:51.710Z,6.27
2017-06-14T20:39:20.258Z,3.30
2017-06-14T20:57:44.858Z,3.70
2017-06-14T21:00:13.377Z,3.90
2017-06-14T21:02:42.609Z,5.07
2017-06-14T21:05:11.083Z,3.53
2017-06-14T21:07:40.312Z,5.87
2017-06-14T21:10:08.936Z,5.50
2017-06-14T21:12:38.217Z,5.20
2017-06-14T21:15:06.718Z,4.87
2017-06-14T21:17:36.682Z,4.40
2017-06-14T21:20:05.261Z,4.50
2017-06-14T21:22:33.729Z,4.47
2017-06-14T21:25:02.261Z,5.73
2017-06-14T21:27:30.935Z,4.77
2017-06-14T21:29:59.421Z,5.73
2017-06-14T21:32:28.311Z,5.10
2017-06-14T21:34:56.979Z,5.53
2017-06-14T21:37:30.711Z,5.37
2017-06-14T21:39:59.205Z,5.67
2017-06-14T21:42:28.882Z,5.03
2017-06-14T21:44:57.373Z,5.40
2017-06-14T21:47:25.865Z,6.03
2017-06-14T21:49:54.331Z,4.63
2017-06-14T21:52:23.307Z,5.87
2017-06-14T21:54:51.862Z,5.30
2017-06-14T21:57:21.425Z,6.47
2017-06-14T21:59:49.913Z,5.90
2017-06-14T22:02:18.531Z,7.40
2017-06-14T22:04:47.165Z,5.87
2017-06-14T22:07:15.649Z,6.87
2017-06-14T22:09:44.122Z,6.83
2017-06-14T22:12:13.129Z,7.63
2017-06-14T22:14:41.577Z,4.90
2017-06-14T22:17:10.310Z,6.40
2017-06-14T22:19:38.790Z,6.57
2017-06-14T22:22:07.358Z,7.80
2017-06-14T22:24:36.061Z,7.60
2017-06-14T22:27:04.657Z,7.93
2017-06-14T22:29:33.527Z,7.90
2017-06-14T22:32:02.001Z,6.60
2017-06-14T22:34:30.583Z,7.00
2017-06-14T22:36:59.092Z,7.10
2017-06-14T22:39:27.644Z,6.83
2017-06-14T22:41:56.206Z,7.30
2017-06-14T22:44:26.046Z,7.73
2017-06-14T22:46:54.533Z,7.60
2017-06-14T22:49:23.033Z,8.53
2017-06-14T22:51:51.520Z,6.90
2017-06-14T22:54:20.050Z,7.93
2017-06-14T22:56:49.282Z,7.83
2017-06-14T22:59:17.737Z,7.83
2017-06-14T23:01:46.242Z,7.50
2017-06-14T23:04:15.178Z,7.67
2017-06-14T23:06:43.640Z,7.83
2017-06-14T23:09:12.123Z,7.70
2017-06-14T23:11:40.711Z,8.20
2017-06-14T23:14:09.265Z,10.67
2017-06-14T23:16:38.063Z,8.83
2017-06-14T23:19:06.751Z,11.53
2017-06-14T23:21:35.403Z,8.43
2017-06-14T23:24:04.944Z,7.77
2017-06-14T23:26:33.531Z,8.50
2017-06-14T23:29:02.456Z,7.37
2017-06-14T23:31:30.951Z,8.60
2017-06-14T23:33:59.432Z,7.90
2017-06-14T23:36:27.893Z,8.07
2017-06-14T23:38:56.367Z,10.27
2017-06-14T23:41:24.937Z,7.87
2017-06-14T23:43:53.637Z,7.27
2017-06-14T23:46:22.246Z,7.77
2017-06-14T23:48:51.196Z,7.73
2017-06-14T23:51:19.805Z,7.87
2017-06-14T23:53:48.243Z,8.57
2017-06-14T23:56:16.817Z,8.37
2017-06-14T23:58:46.080Z,8.70
